createdAt,value
2018-04-14T00:01:56.158Z,7.00
2018-04-14T00:04:24.449Z,8.10
2018-04-14T00:06:53.237Z,7.27
2018-04-14T00:09:24.731Z,7.80
2018-04-14T00:20:52.067Z,7.20
2018-04-14T00:23:20.541Z,7.20
2018-04-14T00:25:58.336Z,7.63
2018-04-14T00:28:33.197Z,9.00
2018-04-14T00:31:14.515Z,10.73
2018-04-14T00:33:47.124Z,11.67
2018-04-14T00:40:25.894Z,9.83
2018-04-14T00:46:09.975Z,10.20
2018-04-14T00:51:35.574Z,9.97
2018-04-14T00:54:19.448Z,10.73
2018-04-14T00:56:48.755Z,10.63
2018-04-14T00:59:35.422Z,11.07
2018-04-14T01:08:18.131Z,12.33
2018-04-14T01:10:48.724Z,13.70
2018-04-14T01:13:17.061Z,10.90
2018-04-14T01:15:47.019Z,11.90
2018-04-14T01:21:06.175Z,10.23
2018-04-14T01:40:21.006Z,9.43
2018-04-14T01:43:11.377Z,11.67
2018-04-14T01:48:56.905Z,12.60
2018-04-14T01:51:33.546Z,8.70
2018-04-14T01:56:44.518Z,9.30
2018-04-14T01:59:14.128Z,10.20
2018-04-14T02:01:52.274Z,9.57
2018-04-14T02:04:28.839Z,11.97
2018-04-14T02:06:58.633Z,9.80
2018-04-14T02:12:51.946Z,9.40
2018-04-14T02:18:34.781Z,9.70
2018-04-14T02:25:01.112Z,8.80
2018-04-14T02:27:38.831Z,9.80
2018-04-14T02:35:39.733Z,9.43
2018-04-14T02:40:52.545Z,10.80
2018-04-14T02:46:32.954Z,14.30
2018-04-14T02:49:26.826Z,10.20
2018-04-14T02:54:55.687Z,10.67
2018-04-14T02:57:42.010Z,9.53
2018-04-14T03:00:16.611Z,9.77
2018-04-14T03:11:09.728Z,8.80
2018-04-14T03:13:47.845Z,10.57
2018-04-14T03:19:28.402Z,10.50
2018-04-14T03:25:30.605Z,8.50
2018-04-14T03:31:13.163Z,9.03
2018-04-14T03:36:49.597Z,8.90
2018-04-14T03:39:37.771Z,7.83
2018-04-14T03:44:53.575Z,8.43
2018-04-14T03:47:21.209Z,7.90
2018-04-14T03:49:48.812Z,7.20
2018-04-14T03:52:16.402Z,8.90
2018-04-14T03:54:44.049Z,9.20
2018-04-14T03:57:11.628Z,9.50
2018-04-14T03:59:39.297Z,12.53
2018-04-14T04:02:06.901Z,7.87
2018-04-14T04:04:34.536Z,7.97
2018-04-14T04:07:02.140Z,8.10
2018-04-14T04:09:29.801Z,8.90
2018-04-14T04:11:57.401Z,8.70
2018-04-14T04:14:25.032Z,10.70
2018-04-14T04:16:52.639Z,7.80
2018-04-14T04:19:31.899Z,9.00
2018-04-14T04:22:10.989Z,7.27
2018-04-14T04:24:50.237Z,8.00
2018-04-14T04:27:17.831Z,7.37
2018-04-14T04:29:45.482Z,7.53
2018-04-14T04:32:13.121Z,8.90
2018-04-14T04:34:40.744Z,7.70
2018-04-14T04:37:08.344Z,10.93
2018-04-14T04:39:36.005Z,7.17
2018-04-14T04:42:03.640Z,6.70
2018-04-14T04:44:31.285Z,11.77
2018-04-14T04:46:58.890Z,7.63
2018-04-14T04:49:26.530Z,7.23
2018-04-14T04:51:54.138Z,8.50
2018-04-14T04:54:21.813Z,7.03
2018-04-14T04:56:49.451Z,8.20
2018-04-14T04:59:17.118Z,8.30
2018-04-14T05:01:44.753Z,7.17
2018-04-14T05:04:12.371Z,7.10
2018-04-14T05:06:40.006Z,7.70
2018-04-14T05:09:07.596Z,8.20
2018-04-14T05:11:35.251Z,8.17
2018-04-14T05:14:02.856Z,7.93
2018-04-14T05:16:30.500Z,8.20
2018-04-14T05:18:58.107Z,7.20
2018-04-14T05:21:25.782Z,7.07
2018-04-14T05:23:53.389Z,8.57
2018-04-14T05:26:21.097Z,8.43
2018-04-14T05:28:48.684Z,6.70
2018-04-14T05:31:16.308Z,7.10
2018-04-14T05:33:43.945Z,10.40
2018-04-14T05:36:11.521Z,7.73
2018-04-14T05:38:39.197Z,8.03
2018-04-14T05:41:06.801Z,9.10
2018-04-14T05:43:34.420Z,8.90
2018-04-14T05:46:02.038Z,7.87
2018-04-14T05:48:29.722Z,7.10
2018-04-14T05:50:57.379Z,9.33
2018-04-14T05:53:24.978Z,9.83
2018-04-14T05:55:52.571Z,9.23
2018-04-14T05:58:20.207Z,7.03
2018-04-14T06:00:47.808Z,7.30
2018-04-14T06:03:15.501Z,8.10
2018-04-14T06:05:43.158Z,10.23
2018-04-14T06:08:10.840Z,9.13
2018-04-14T06:10:38.500Z,8.03
2018-04-14T06:13:06.151Z,7.13
2018-04-14T06:15:33.829Z,8.17
2018-04-14T06:18:01.429Z,7.17
2018-04-14T06:20:29.057Z,7.33
2018-04-14T06:22:56.664Z,9.17
2018-04-14T06:25:24.301Z,8.80
2018-04-14T06:27:51.918Z,8.47
2018-04-14T06:30:19.576Z,13.17
2018-04-14T06:32:47.183Z,11.20
2018-04-14T06:35:14.820Z,23.40
2018-04-14T06:37:42.450Z,22.30
2018-04-14T06:40:10.113Z,18.70
2018-04-14T06:42:37.767Z,19.77
2018-04-14T06:45:05.489Z,22.67
2018-04-14T06:47:33.089Z,28.43
2018-04-14T06:50:00.758Z,22.97
2018-04-14T06:52:28.388Z,19.80
2018-04-14T06:54:56.090Z,18.47
2018-04-14T06:57:23.760Z,25.07
2018-04-14T06:59:51.365Z,27.00
2018-04-14T07:02:19.068Z,25.00
2018-04-14T07:04:46.693Z,23.63
2018-04-14T07:07:14.405Z,26.53
2018-04-14T07:09:42.074Z,26.07
2018-04-14T07:12:09.794Z,23.60
2018-04-14T07:14:37.747Z,22.60
2018-04-14T07:17:05.426Z,32.07
2018-04-14T07:19:33.162Z,36.70
2018-04-14T07:22:00.806Z,26.40
2018-04-14T07:24:28.442Z,29.30
2018-04-14T07:26:56.188Z,28.90
2018-04-14T07:29:23.949Z,33.93
2018-04-14T07:31:52.797Z,26.80
2018-04-14T07:34:20.680Z,37.90
2018-04-14T07:36:48.382Z,31.73
2018-04-14T07:39:16.003Z,36.00
2018-04-14T07:41:43.628Z,35.20
2018-04-14T07:44:11.280Z,46.23
2018-04-14T07:46:38.913Z,42.60
2018-04-14T07:49:06.580Z,34.77
2018-04-14T07:51:34.219Z,44.63
2018-04-14T07:54:01.903Z,43.37
2018-04-14T07:56:29.548Z,55.63
2018-04-14T07:58:57.234Z,55.67
2018-04-14T08:01:24.878Z,54.97
2018-04-14T08:03:52.596Z,59.13
2018-04-14T08:06:20.261Z,68.13
2018-04-14T08:08:48.053Z,66.37
2018-04-14T08:11:15.706Z,67.33
2018-04-14T08:13:43.362Z,75.97
2018-04-14T08:16:10.997Z,76.03
2018-04-14T08:18:38.675Z,69.33
2018-04-14T08:21:06.290Z,70.83
2018-04-14T08:23:33.950Z,65.53
2018-04-14T08:26:01.604Z,72.93
2018-04-14T08:28:29.526Z,75.17
2018-04-14T08:30:57.173Z,79.80
2018-04-14T08:33:24.845Z,74.97
2018-04-14T08:35:52.518Z,84.17
2018-04-14T08:38:20.120Z,75.87
2018-04-14T08:40:47.938Z,78.77
2018-04-14T08:43:15.544Z,71.70
2018-04-14T08:45:43.337Z,72.47
2018-04-14T08:48:10.934Z,74.10
2018-04-14T08:50:38.830Z,74.97
2018-04-14T08:53:06.463Z,80.20
2018-04-14T08:55:34.151Z,82.57
2018-04-14T08:58:01.779Z,75.40
2018-04-14T09:00:29.630Z,69.93
2018-04-14T09:02:57.285Z,77.07
2018-04-14T09:05:25.154Z,76.80
2018-04-14T09:07:52.780Z,78.53
2018-04-14T09:10:20.641Z,70.10
2018-04-14T09:12:49.318Z,76.63
2018-04-14T09:15:17.184Z,80.50
2018-04-14T09:17:44.817Z,72.00
2018-04-14T09:20:12.439Z,69.10
2018-04-14T09:22:40.149Z,102.50
2018-04-14T09:25:07.866Z,74.67
2018-04-14T09:27:35.538Z,75.73
2018-04-14T09:30:03.197Z,81.07
2018-04-14T09:32:30.896Z,72.83
2018-04-14T09:34:58.571Z,66.80
2018-04-14T09:37:26.295Z,73.20
2018-04-14T09:39:54.045Z,73.40
2018-04-14T09:42:21.781Z,76.50
2018-04-14T09:44:49.544Z,72.63
2018-04-14T09:47:17.304Z,87.93
2018-04-14T09:49:44.947Z,80.90
2018-04-14T09:52:12.772Z,82.40
2018-04-14T09:54:40.597Z,87.47
2018-04-14T09:57:08.425Z,78.03
2018-04-14T09:59:36.057Z,75.17
2018-04-14T10:02:03.737Z,81.10
2018-04-14T10:04:31.569Z,74.73
2018-04-14T10:06:59.192Z,77.63
2018-04-14T10:09:26.866Z,77.40
2018-04-14T10:11:55.558Z,73.10
2018-04-14T10:14:23.276Z,72.70
2018-04-14T10:16:50.947Z,70.67
2018-04-14T10:19:18.604Z,70.20
2018-04-14T10:21:46.246Z,70.17
2018-04-14T10:24:13.967Z,69.17
2018-04-14T10:26:41.705Z,72.33
2018-04-14T10:29:09.461Z,65.83
2018-04-14T10:31:37.169Z,64.33
2018-04-14T10:34:05.204Z,73.33
2018-04-14T10:36:32.857Z,73.77
2018-04-14T10:39:00.504Z,69.87
2018-04-14T10:41:28.161Z,67.83
2018-04-14T10:43:55.801Z,69.10
2018-04-14T10:46:23.483Z,70.80
2018-04-14T10:48:51.132Z,60.30
2018-04-14T10:51:18.782Z,66.90
2018-04-14T10:53:46.490Z,67.87
2018-04-14T10:56:14.118Z,55.87
2018-04-14T10:58:41.769Z,63.30
2018-04-14T11:01:09.452Z,73.37
2018-04-14T11:03:37.176Z,68.43
2018-04-14T11:06:04.842Z,64.13
2018-04-14T11:08:32.474Z,67.80
2018-04-14T11:11:00.111Z,63.93
2018-04-14T11:13:27.738Z,62.63
2018-04-14T11:15:55.453Z,63.83
2018-04-14T11:18:23.077Z,63.50
2018-04-14T11:20:50.729Z,67.53
2018-04-14T11:23:18.380Z,67.63
2018-04-14T11:25:46.078Z,62.67
2018-04-14T11:28:13.797Z,53.20
2018-04-14T11:30:41.459Z,59.97
2018-04-14T11:33:09.123Z,63.73
2018-04-14T11:35:36.751Z,62.60
2018-04-14T11:38:04.394Z,63.03
2018-04-14T11:40:32.010Z,60.30
2018-04-14T11:42:59.745Z,61.70
2018-04-14T11:45:27.357Z,48.73
2018-04-14T11:47:55.004Z,55.93
2018-04-14T11:50:22.618Z,57.80
2018-04-14T11:52:50.256Z,63.80
2018-04-14T11:55:17.908Z,59.80
2018-04-14T11:57:45.557Z,59.20
2018-04-14T12:00:13.171Z,60.50
2018-04-14T12:02:40.801Z,61.83
2018-04-14T12:05:08.673Z,62.00
2018-04-14T12:07:36.547Z,63.90
2018-04-14T12:10:04.461Z,67.73
2018-04-14T12:12:35.113Z,62.87
2018-04-14T12:15:02.862Z,70.77
2018-04-14T12:17:30.541Z,62.30
2018-04-14T12:19:58.257Z,60.70
2018-04-14T12:22:25.995Z,63.10
2018-04-14T12:24:53.673Z,64.60
2018-04-14T12:27:21.482Z,62.50
2018-04-14T12:29:49.124Z,66.47
2018-04-14T12:32:16.793Z,57.23
2018-04-14T12:34:44.449Z,58.30
2018-04-14T12:37:12.076Z,64.10
2018-04-14T12:39:39.927Z,63.00
2018-04-14T12:42:07.545Z,53.33
2018-04-14T12:44:35.189Z,59.10
2018-04-14T12:47:02.845Z,51.37
2018-04-14T12:49:30.469Z,58.47
2018-04-14T12:51:58.113Z,61.73
2018-04-14T12:54:25.813Z,53.37
2018-04-14T12:56:53.565Z,52.97
2018-04-14T12:59:21.235Z,52.37
2018-04-14T13:01:48.858Z,58.47
2018-04-14T13:04:16.525Z,49.57
2018-04-14T13:06:44.121Z,57.53
2018-04-14T13:09:11.786Z,64.40
2018-04-14T13:11:39.412Z,52.00
2018-04-14T13:14:07.033Z,53.90
2018-04-14T13:16:34.676Z,51.90
2018-04-14T13:19:02.294Z,52.70
2018-04-14T13:21:30.038Z,54.03
2018-04-14T13:23:57.668Z,50.03
2018-04-14T13:26:25.325Z,53.23
2018-04-14T13:28:52.949Z,47.00
2018-04-14T13:31:20.584Z,46.27
2018-04-14T13:33:48.221Z,48.73
2018-04-14T13:36:15.861Z,47.77
2018-04-14T13:38:43.505Z,39.10
2018-04-14T13:41:11.142Z,43.10
2018-04-14T13:43:38.748Z,45.50
2018-04-14T13:46:06.399Z,38.80
2018-04-14T13:48:34.063Z,42.60
2018-04-14T13:51:01.707Z,34.20
2018-04-14T13:53:29.405Z,37.47
2018-04-14T13:55:57.048Z,36.67
2018-04-14T13:58:24.677Z,38.03
2018-04-14T14:00:52.314Z,37.83
2018-04-14T14:03:19.956Z,37.07
2018-04-14T14:05:47.753Z,40.87
2018-04-14T14:08:15.395Z,39.83
2018-04-14T14:10:43.002Z,37.00
2018-04-14T14:13:10.672Z,35.33
2018-04-14T14:15:38.284Z,34.23
2018-04-14T14:18:06.013Z,32.77
2018-04-14T14:20:33.626Z,32.80
2018-04-14T14:23:01.280Z,56.73
2018-04-14T14:25:28.945Z,40.90
2018-04-14T14:27:56.638Z,37.43
2018-04-14T14:30:24.244Z,33.03
2018-04-14T14:32:51.929Z,29.17
2018-04-14T14:35:19.552Z,31.97
2018-04-14T14:37:47.202Z,28.70
2018-04-14T14:40:14.904Z,29.10
2018-04-14T14:42:42.596Z,28.70
2018-04-14T14:45:10.165Z,31.47
2018-04-14T14:47:38.661Z,32.57
2018-04-14T14:50:11.974Z,30.00
2018-04-14T14:52:39.629Z,29.47
2018-04-14T14:55:07.266Z,34.67
2018-04-14T14:57:34.869Z,36.03
2018-04-14T15:00:02.539Z,31.23
2018-04-14T15:02:30.136Z,26.40
2018-04-14T15:04:57.905Z,31.00
2018-04-14T15:07:25.645Z,28.37
2018-04-14T15:09:53.464Z,30.90
2018-04-14T15:12:21.083Z,25.70
2018-04-14T15:14:48.728Z,26.57
2018-04-14T15:17:16.365Z,28.53
2018-04-14T15:19:44.040Z,27.57
2018-04-14T15:22:11.678Z,26.83
2018-04-14T15:24:39.415Z,24.63
2018-04-14T15:27:07.103Z,27.13
2018-04-14T15:29:34.707Z,23.47
2018-04-14T15:32:02.359Z,20.37
2018-04-14T15:34:29.999Z,19.43
2018-04-14T15:36:57.645Z,21.37
2018-04-14T15:39:25.256Z,24.33
2018-04-14T15:41:52.897Z,20.90
2018-04-14T15:44:20.513Z,20.70
2018-04-14T15:46:48.173Z,22.30
2018-04-14T15:49:15.785Z,23.03
2018-04-14T15:51:43.437Z,20.10
2018-04-14T15:54:11.069Z,26.20
2018-04-14T15:56:38.749Z,21.67
2018-04-14T15:59:06.374Z,19.87
2018-04-14T16:01:33.976Z,23.27
2018-04-14T16:04:09.656Z,21.30
2018-04-14T16:06:29.568Z,20.20
2018-04-14T16:08:57.280Z,18.40
2018-04-14T16:11:24.893Z,18.93
2018-04-14T16:13:52.537Z,17.00
2018-04-14T16:16:20.173Z,20.30
2018-04-14T16:18:48.033Z,18.57
2018-04-14T16:21:15.757Z,20.13
2018-04-14T16:23:43.425Z,19.83
2018-04-14T16:26:11.074Z,19.87
2018-04-14T16:28:38.713Z,19.67
2018-04-14T16:31:06.342Z,18.00
2018-04-14T16:33:34.156Z,19.83
2018-04-14T16:36:01.803Z,24.83
2018-04-14T16:38:29.468Z,24.23
2018-04-14T16:40:57.064Z,23.43
2018-04-14T16:43:24.798Z,24.90
2018-04-14T16:45:52.411Z,22.60
2018-04-14T16:48:20.079Z,23.73
2018-04-14T16:50:47.729Z,25.00
2018-04-14T16:53:15.536Z,25.47
2018-04-14T16:55:43.204Z,27.70
2018-04-14T16:58:10.857Z,23.07
2018-04-14T17:00:38.549Z,24.80
2018-04-14T17:03:06.281Z,27.03
2018-04-14T17:05:34.000Z,21.37
2018-04-14T17:08:01.633Z,23.80
2018-04-14T17:10:29.469Z,24.67
2018-04-14T17:12:57.145Z,24.23
2018-04-14T17:15:24.828Z,23.30
2018-04-14T17:17:52.909Z,25.47
2018-04-14T17:20:20.719Z,23.10
2018-04-14T17:22:48.431Z,27.30
2018-04-14T17:25:16.223Z,24.47
2018-04-14T17:27:43.931Z,25.47
2018-04-14T17:30:11.929Z,25.37
2018-04-14T17:32:39.950Z,26.53
2018-04-14T17:35:07.654Z,26.13
2018-04-14T17:37:35.348Z,19.43
2018-04-14T17:40:03.014Z,24.73
2018-04-14T17:42:31.625Z,20.80
2018-04-14T17:44:59.509Z,24.77
2018-04-14T17:47:29.462Z,23.90
2018-04-14T17:49:58.534Z,26.33
2018-04-14T17:52:27.365Z,21.10
2018-04-14T17:54:55.178Z,25.60
2018-04-14T17:57:23.157Z,23.90
2018-04-14T17:59:50.945Z,24.87
2018-04-14T18:02:18.674Z,25.07
2018-04-14T18:04:46.378Z,22.73
2018-04-14T18:07:14.439Z,22.70
2018-04-14T18:09:43.364Z,23.80
2018-04-14T18:12:11.751Z,24.50
2018-04-14T18:14:41.907Z,22.40
2018-04-14T18:17:10.038Z,23.10
2018-04-14T18:19:46.981Z,24.83
2018-04-14T18:22:17.003Z,25.67
2018-04-14T18:24:44.945Z,27.83
2018-04-14T18:27:12.677Z,22.60
2018-04-14T18:29:40.354Z,21.00
2018-04-14T18:32:08.109Z,27.90
2018-04-14T18:34:35.850Z,22.17
2018-04-14T18:37:03.552Z,20.07
2018-04-14T18:39:31.575Z,23.63
2018-04-14T18:41:59.298Z,28.20
2018-04-14T18:44:27.068Z,23.90
2018-04-14T18:46:54.991Z,21.97
2018-04-14T18:49:22.796Z,22.60
2018-04-14T18:51:50.554Z,22.47
2018-04-14T18:54:19.085Z,22.43
2018-04-14T18:56:48.323Z,23.97
2018-04-14T18:59:16.186Z,21.50
2018-04-14T19:01:48.928Z,23.40
2018-04-14T19:04:17.791Z,20.90
2018-04-14T19:06:49.870Z,23.23
2018-04-14T19:09:21.517Z,25.83
2018-04-14T19:11:49.445Z,27.37
2018-04-14T19:14:17.904Z,21.50
2018-04-14T19:16:45.599Z,20.57
2018-04-14T19:19:13.311Z,20.67
2018-04-14T19:21:41.120Z,21.40
2018-04-14T19:24:08.753Z,24.63
2018-04-14T19:26:36.458Z,25.10
2018-04-14T19:29:05.121Z,22.60
2018-04-14T19:31:34.008Z,24.97
2018-04-14T19:34:02.128Z,25.20
2018-04-14T19:36:30.202Z,20.93
2018-04-14T19:38:58.044Z,24.33
2018-04-14T19:41:25.993Z,22.00
2018-04-14T19:43:54.614Z,25.60
2018-04-14T19:46:23.606Z,22.80
2018-04-14T19:48:51.564Z,22.73
2018-04-14T19:51:19.692Z,20.17
2018-04-14T19:53:47.449Z,23.73
2018-04-14T19:56:15.496Z,21.30
2018-04-14T19:58:44.282Z,21.97
2018-04-14T20:01:15.210Z,21.00
2018-04-14T20:03:45.685Z,23.93
2018-04-14T20:06:13.802Z,32.43
2018-04-14T20:08:41.676Z,21.40
2018-04-14T20:11:10.341Z,25.90
2018-04-14T20:13:38.510Z,24.60
2018-04-14T20:16:07.186Z,23.37
2018-04-14T20:18:35.005Z,24.77
2018-04-14T20:21:02.785Z,22.23
2018-04-14T20:23:31.815Z,24.67
2018-04-14T20:26:00.283Z,21.93
2018-04-14T20:28:29.860Z,25.27
2018-04-14T20:30:57.759Z,24.53
2018-04-14T20:33:25.973Z,21.43
2018-04-14T20:35:53.797Z,22.80
2018-04-14T20:38:21.612Z,21.70
2018-04-14T20:40:52.747Z,21.67
2018-04-14T20:43:20.950Z,25.40
2018-04-14T20:45:52.363Z,21.40
2018-04-14T20:48:25.761Z,23.63
2018-04-14T20:50:58.315Z,25.90
2018-04-14T20:53:33.714Z,21.53
2018-04-14T20:56:02.693Z,23.73
2018-04-14T20:58:34.539Z,23.40
2018-04-14T21:01:02.289Z,23.60
2018-04-14T21:03:41.986Z,24.83
2018-04-14T21:06:10.182Z,26.70
2018-04-14T21:08:39.058Z,24.70
2018-04-14T21:11:07.013Z,25.37
2018-04-14T21:13:35.039Z,27.60
2018-04-14T21:16:05.038Z,28.00
2018-04-14T21:18:34.005Z,31.17
2018-04-14T21:21:03.898Z,28.83
2018-04-14T21:23:33.095Z,24.83
2018-04-14T21:26:00.795Z,30.40
2018-04-14T21:28:28.712Z,29.13
2018-04-14T21:30:56.578Z,27.43
2018-04-14T21:33:25.641Z,25.13
2018-04-14T21:35:53.515Z,26.27
2018-04-14T21:38:21.287Z,23.67
2018-04-14T21:40:49.032Z,21.47
2018-04-14T21:43:16.890Z,24.13
2018-04-14T21:45:44.625Z,24.67
2018-04-14T21:48:13.202Z,22.90
2018-04-14T21:50:40.998Z,26.90
2018-04-14T21:53:08.594Z,25.50
2018-04-14T21:55:36.305Z,31.10
2018-04-14T21:58:03.959Z,27.37
2018-04-14T22:00:31.650Z,25.73
2018-04-14T22:02:59.257Z,24.17
2018-04-14T22:05:26.939Z,23.73
2018-04-14T22:07:54.591Z,20.47
2018-04-14T22:10:22.216Z,21.80
2018-04-14T22:12:49.925Z,24.60
2018-04-14T22:15:17.586Z,21.60
2018-04-14T22:17:45.254Z,23.13
2018-04-14T22:20:12.872Z,24.13
2018-04-14T22:22:40.517Z,20.20
2018-04-14T22:25:08.172Z,22.43
2018-04-14T22:27:35.828Z,18.87
2018-04-14T22:30:03.444Z,24.07
2018-04-14T22:32:31.090Z,24.10
2018-04-14T22:34:58.710Z,18.63
2018-04-14T22:37:26.362Z,22.30
2018-04-14T22:39:53.970Z,19.90
2018-04-14T22:42:21.593Z,19.00
2018-04-14T22:44:50.030Z,19.57
2018-04-14T22:47:17.678Z,27.70
2018-04-14T22:49:45.392Z,24.30
2018-04-14T22:52:13.024Z,23.07
2018-04-14T22:54:40.887Z,19.80
2018-04-14T22:57:08.527Z,22.00
2018-04-14T22:59:36.190Z,21.20
2018-04-14T23:02:03.832Z,28.77
2018-04-14T23:04:31.493Z,29.23
2018-04-14T23:06:59.195Z,43.93
2018-04-14T23:09:27.055Z,37.83
2018-04-14T23:11:54.994Z,38.33
2018-04-14T23:14:22.633Z,34.13
2018-04-14T23:16:50.312Z,31.70
2018-04-14T23:19:17.999Z,39.57
2018-04-14T23:21:45.793Z,29.97
2018-04-14T23:24:13.470Z,32.17
2018-04-14T23:26:41.174Z,27.83
2018-04-14T23:29:08.838Z,31.90
2018-04-14T23:31:36.533Z,29.73
2018-04-14T23:34:04.192Z,30.93
2018-04-14T23:36:31.850Z,29.93
2018-04-14T23:38:59.538Z,27.10
2018-04-14T23:41:27.259Z,33.40
2018-04-14T23:43:54.914Z,25.77
2018-04-14T23:46:22.602Z,27.40
2018-04-14T23:48:50.274Z,26.60
2018-04-14T23:51:17.897Z,21.50
2018-04-14T23:53:45.572Z,23.33
2018-04-14T23:56:13.255Z,22.17
2018-04-14T23:58:40.920Z,26.93
